Darstellungsparameter: Aktuell verwendete Einstellungen:
Skalierung der Graphiken ... ?
xyx+y,   Skalierungsfaktor:      Skalierung: Modus: x, Faktor: 1
Darstellungszeitraum ... ?
Vom - - bis: - -   Zeitraum: 03.08.2020 - 22.10.2020
Min/Max/Avg-Anzeige ... ?
Zeige MMA aktuell
Zeige MMA Monat
Zeige MMA alles
Zeige --A aktuell
Zeige --A Monat
Zeige --A alles
Keine MMA-Anzeige
MMA:
Keine MMA-Graphiken
MMA-Basis: 03.08.2020 - 22.10.2020
Quicknavigation für Darstellung... ?
Tage:      1T, 2T, 3T, 5T -1T -2T -3T -5T +1T +2T +3T +5T
Wochen: 1W, 2W, 3W -1W -2W -3W +1W +2W +3W
Monate: 1M, 3M, 6M -1M -3M -6M +1M +3M +6M
Jahre:    1J, 3J, 5J, 10J -1J -3J -5J -10J +1J +3J +5J +10J
Nutze für die Darstellung ... ?
Originaldaten oder ...
Mittelwerte Minima Maxima auf...
Stundenbasis Tagesbasis Wochenbasis
Monatsbasis Jahresbasis      Datenbasis: Mittelwerte auf Tagesbasis
Darstellen als:
Statistik (Auto) Statistik J:M      Darstellung:

Der gewünschte Datumsbereich war nicht gültig/verfügbar und wurde korrigiert....
Das angegebene Enddatum (02.08.2021 23:59:59) liegt in der Zukunft.


Zur Graphik,    zurück zur Übersicht aller Sensoren.
 
Tabellarische Datenbersicht: ?
 
Sensor: Nr:Datum:Temp:Feuchte:Taupunkt:
Aussen-T/F 1 03-08-2020 00:00:00 18.1684 C 72.7361 % 13.2 C
2 04-08-2020 00:00:00 19.15486 C 64.7847 % 12.37 C
3 05-08-2020 00:00:00 19.44549 C 61.2292 % 11.79 C
4 06-08-2020 00:00:00 21.8184 C 59.4549 % 13.57 C
5 07-08-2020 00:00:00 23.97535 C 59.4826 % 15.6 C
6 08-08-2020 00:00:00 26.13125 C 58.1875 % 17.27 C
7 09-08-2020 00:00:00 24.35937 C 66.6146 % 17.74 C
8 10-08-2020 00:00:00 25.68472 C 68.1910 % 19.38 C
9 11-08-2020 00:00:00 25.77396 C 68.1285 % 19.45 C
10 12-08-2020 00:00:00 23.65799 C 82.5382 % 20.51 C
11 13-08-2020 00:00:00 23.34201 C 82.8333 % 20.26 C
12 14-08-2020 00:00:00 23.16285 C 77.1215 % 18.93 C
13 15-08-2020 00:00:00 21.83368 C 84.6111 % 19.12 C
14 16-08-2020 00:00:00 22.52535 C 79.9028 % 18.88 C
15 17-08-2020 00:00:00 21.08056 C 81.9514 % 17.88 C
16 18-08-2020 00:00:00 19.08924 C 82.0139 % 15.95 C
17 19-08-2020 00:00:00 19.13125 C 82.7951 % 16.14 C
18 20-08-2020 00:00:00 23.86042 C 77.6875 % 19.72 C
19 21-08-2020 00:00:00 25.27743 C 71.3264 % 19.71 C
20 22-08-2020 00:00:00 22.45625 C 67.1285 % 16.06 C
21 23-08-2020 00:00:00 19.15764 C 69.8229 % 13.52 C
22 24-08-2020 00:00:00 18.23437 C 71.3472 % 12.97 C
23 25-08-2020 00:00:00 19.07917 C 71.9306 % 13.9 C
24 26-08-2020 00:00:00 20.74132 C 58.6875 % 12.36 C
25 27-08-2020 00:00:00 18.39271 C 69.0382 % 12.62 C
Sensor: Nr:Datum:Temp:Feuchte:Taupunkt:
Aussen-T/F 26 28-08-2020 00:00:00 17.86667 C 78.0104 % 13.98 C
27 29-08-2020 00:00:00 16.24479 C 77.3403 % 12.28 C
28 30-08-2020 00:00:00 15.77153 C 80.3125 % 12.39 C
29 31-08-2020 00:00:00 15.63437 C 88.7847 % 13.79 C
30 01-09-2020 00:00:00 15.08889 C 88.1806 % 13.15 C
31 02-09-2020 00:00:00 15.65833 C 79.2083 % 12.07 C
32 03-09-2020 00:00:00 14.23542 C 87.9375 % 12.27 C
33 04-09-2020 00:00:00 20.30278 C 80.3993 % 16.82 C
34 05-09-2020 00:00:00 16.89688 C 78.7049 % 13.18 C
35 06-09-2020 00:00:00 13.28021 C 77.0208 % 9.34 C
36 07-09-2020 00:00:00 14.01493 C 75.7222 % 9.8 C
37 08-09-2020 00:00:00 16.29826 C 73.6458 % 11.59 C
38 09-09-2020 00:00:00 18.26667 C 81.2639 % 15 C
39 10-09-2020 00:00:00 17.81319 C 73.1389 % 12.94 C
40 11-09-2020 00:00:00 15.1066 C 75.7639 % 10.86 C
41 12-09-2020 00:00:00 17.20625 C 75.7535 % 12.89 C
42 13-09-2020 00:00:00 17.20486 C 74.9549 % 12.73 C
43 14-09-2020 00:00:00 18.81806 C 73.5069 % 13.98 C
44 15-09-2020 00:00:00 20.38194 C 70.7118 % 14.89 C
45 16-09-2020 00:00:00 20.67049 C 74.0139 % 15.87 C
46 17-09-2020 00:00:00 17.93958 C 64.1181 % 11.06 C
47 18-09-2020 00:00:00 15.74687 C 65.9757 % 9.41 C
48 19-09-2020 00:00:00 15.73333 C 62.4097 % 8.58 C
49 20-09-2020 00:00:00 14.83056 C 69.2257 % 9.25 C
50 21-09-2020 00:00:00 14.75174 C 69.8542 % 9.31 C
Sensor: Nr:Datum:Temp:Feuchte:Taupunkt:
Aussen-T/F 51 22-09-2020 00:00:00 16.10521 C 69.6840 % 10.57 C
52 23-09-2020 00:00:00 17.57639 C 68.9479 % 11.82 C
53 24-09-2020 00:00:00 16.23021 C 76.9653 % 12.19 C
54 25-09-2020 00:00:00 12.16979 C 82.8542 % 9.35 C
55 26-09-2020 00:00:00 10.52674 C 88.2188 % 8.66 C
56 27-09-2020 00:00:00 11.00694 C 91.8576 % 9.74 C
57 28-09-2020 00:00:00 11.72882 C 87.0243 % 9.64 C
58 29-09-2020 00:00:00 12.13333 C 94.1250 % 11.22 C
59 30-09-2020 00:00:00 14.10799 C 92.7813 % 12.96 C
60 01-10-2020 00:00:00 12.57465 C 93.1042 % 11.49 C
61 02-10-2020 00:00:00 13.41493 C 88.6597 % 11.58 C
62 03-10-2020 00:00:00 13.37049 C 88.4410 % 11.5 C
63 04-10-2020 00:00:00 11.79861 C 86.3889 % 9.6 C
64 05-10-2020 00:00:00 11.07257 C 91.3021 % 9.71 C
65 06-10-2020 00:00:00 13.11389 C 88.5590 % 11.27 C
66 07-10-2020 00:00:00 13.19444 C 82.1181 % 10.21 C
67 08-10-2020 00:00:00 13.25243 C 88.7188 % 11.43 C
68 09-10-2020 00:00:00 12.99063 C 94.7847 % 12.17 C
69 10-10-2020 00:00:00 9.91979 C 86.5556 % 7.79 C
70 11-10-2020 00:00:00 10.06944 C 83.8299 % 7.46 C
71 12-10-2020 00:00:00 9.40799 C 91.4722 % 8.09 C
72 13-10-2020 00:00:00 7.37361 C 92.5382 % 6.25 C
73 14-10-2020 00:00:00 7.7559 C 89.7222 % 6.18 C
74 15-10-2020 00:00:00 9.09444 C 92.2639 % 7.91 C
75 16-10-2020 00:00:00 9.26007 C 92.3021 % 8.08 C
Sensor: Nr:Datum:Temp:Feuchte:Taupunkt:
Aussen-T/F 76 17-10-2020 00:00:00 6.19618 C 93.4236 % 5.22 C
77 18-10-2020 00:00:00 8.18958 C 90.5556 % 6.74 C
78 19-10-2020 00:00:00 8.62604 C 91.6528 % 7.35 C
79 20-10-2020 00:00:00 8.95714 C 93.6516 % 7.99 C
80 21-10-2020 00:00:00 15.08611 C 82.2326 % 12.08 C
81 22-10-2020 00:00:00 16.18681 C 86.0660 % 13.86 C

Maximal/Minimal-Werte vom 03.08.2020 - 22.10.2020

Sensor Min Max Avg
Temp
(Aussen-T/F)
3.1 °C
17-10-2020  05:05:00
38.2 °C
08-08-2020  17:10:00
16.34 °C
Feuchte
(Aussen-T/F)
25 %
08-08-2020  17:10:00
98 %
12-08-2020  08:30:00
79.09 %
Taupunkt
(Aussen-T/F)
5.22 C
17-10-2020  00:00:00
20.51 C
12-08-2020  00:00:00
12.4 C

Die Daten stammen von einer Davis Vantage Pro 2 Wetter-Station und werden unter Linux mit der Software wview2wettercgi und aufbereitet. Alle Angaben erfolgen ohne Gewähr für ihre Vollständigkeit oder Richtigkeit.
Kontakt: Rainer Krienke krienke@uni-koblenz.de . Meine Webseiten an der Uni Koblenz oder privat.
Version: $Revision: 0.78 $